Time;durP1;ratioP1;P1;durP2;ratioP2;P2;SDS_P1;SDS_P2;PMS_P1;PMS_P2;Temp;Humidity;BMP_temperature;BMP_pressure;BME280_temperature;BME280_humidity;BME280_pressure;Samples;Min_cycle;Max_cycle;Signal;HPM_P1;HPM_P2
2022/12/18 00:00:50;;;;;;;10.48;6.35;;;;;;;17.05;47.24;97442.69;10422929;28;20376;-28
2022/12/18 00:05:52;;;;;;;10.57;6.80;;;;;;;17.07;48.55;97428.41;10426178;28;20052;-29
2022/12/18 00:10:52;;;;;;;12.73;7.07;;;;;;;17.07;45.48;97418.28;10442366;28;20044;-29
2022/12/18 00:15:52;;;;;;;10.47;6.47;;;;;;;17.08;45.59;97420.00;10440308;28;20037;-29
2022/12/18 00:20:53;;;;;;;12.70;6.50;;;;;;;17.06;46.47;97429.25;10438628;28;20108;-29
2022/12/18 00:25:53;;;;;;;8.50;6.37;;;;;;;17.05;46.11;97445.22;10440003;28;20512;-29
2022/12/18 00:31:08;;;;;;;11.18;6.57;;;;;;;17.05;46.39;97460.41;10450503;28;20587;-30
2022/12/18 00:36:15;;;;;;;9.45;6.38;;;;;;;17.05;46.07;97466.31;10444809;28;20519;-29
2022/12/18 00:42:55;;;;;;;10.45;5.82;;;;;;;17.03;46.35;97457.84;10444234;28;20033;-29
2022/12/18 00:46:38;;;;;;;10.30;6.03;;;;;;;17.02;46.36;97446.03;10429930;28;20025;-29
2022/12/18 00:51:39;;;;;;;10.10;6.22;;;;;;;17.04;46.08;97448.56;10434318;28;20033;-29
2022/12/18 00:56:40;;;;;;;11.38;6.75;;;;;;;16.99;46.73;97435.84;10439496;28;20028;-29
2022/12/18 01:01:40;;;;;;;8.30;5.43;;;;;;;16.99;46.64;97455.25;10443590;28;20048;-29
2022/12/18 01:06:40;;;;;;;10.07;6.67;;;;;;;16.98;47.10;97463.66;10438305;28;20585;-29
2022/12/18 01:11:41;;;;;;;9.13;5.80;;;;;;;17.00;46.93;97456.94;10445012;28;20276;-29
2022/12/18 01:16:41;;;;;;;12.02;6.40;;;;;;;17.02;47.63;97450.22;10437844;28;20039;-29
2022/12/18 01:21:42;;;;;;;10.30;6.53;;;;;;;16.98;46.66;97449.31;10441449;28;20055;-29
2022/12/18 01:26:42;;;;;;;8.85;5.90;;;;;;;16.96;47.11;97450.97;10438331;28;20039;-30
2022/12/18 01:31:43;;;;;;;8.07;5.43;;;;;;;16.97;46.01;97456.88;10445936;28;20033;-29
2022/12/18 01:36:43;;;;;;;8.38;5.80;;;;;;;17.00;46.30;97467.06;10439511;28;20049;-29
2022/12/18 01:42:02;;;;;;;7.60;5.82;;;;;;;16.97;46.77;97467.00;10441054;28;20116;-29
2022/12/18 01:47:03;;;;;;;7.30;5.40;;;;;;;16.95;46.72;97468.66;10437942;28;20040;-29
2022/12/18 01:52:04;;;;;;;7.73;5.83;;;;;;;17.00;45.87;97467.91;10435997;28;20029;-29
2022/12/18 01:57:04;;;;;;;10.45;5.95;;;;;;;17.00;45.96;97469.59;10444829;28;20302;-29
2022/12/18 02:02:07;;;;;;;8.30;5.75;;;;;;;16.93;46.72;97471.19;10419701;28;20029;-29
2022/12/18 02:07:40;;;;;;;7.30;5.78;;;;;;;16.97;46.96;97472.06;10445791;28;20025;-29
2022/12/18 02:12:57;;;;;;;7.57;5.47;;;;;;;16.95;46.56;97478.78;10403518;28;20037;-29
2022/12/18 02:18:33;;;;;;;8.10;6.10;;;;;;;16.96;46.39;97486.41;10441594;28;20514;-29
2022/12/18 02:23:45;;;;;;;8.63;5.68;;;;;;;16.97;47.42;97497.34;10442073;28;20530;-30
2022/12/18 02:28:55;;;;;;;7.10;5.53;;;;;;;16.98;46.87;97504.13;10433110;28;20029;-30
2022/12/18 02:33:57;;;;;;;9.13;5.35;;;;;;;16.90;46.78;97496.41;10439193;28;20036;-29
2022/12/18 02:39:00;;;;;;;9.60;5.65;;;;;;;16.88;46.77;97489.59;10441447;28;20493;-30
2022/12/18 02:44:06;;;;;;;6.63;5.55;;;;;;;16.93;46.30;97493.06;10427324;28;20534;-29
2022/12/18 02:49:36;;;;;;;9.93;5.23;;;;;;;16.95;46.17;97478.78;10429371;28;20036;-29
2022/12/18 02:54:59;;;;;;;11.27;5.30;;;;;;;16.95;46.20;97482.16;10428474;28;20037;-29
2022/12/18 03:00:08;;;;;;;10.70;5.80;;;;;;;16.97;45.85;97484.69;10431396;28;20036;-29
2022/12/18 03:05:20;;;;;;;8.10;5.72;;;;;;;16.94;46.55;97483.00;10429383;28;20078;-29
2022/12/18 03:10:28;;;;;;;6.47;5.15;;;;;;;16.90;46.67;97480.38;10443914;28;20035;-29
2022/12/18 03:15:33;;;;;;;8.55;5.90;;;;;;;16.74;46.54;97443.81;10431373;28;20039;-29
2022/12/18 03:20:44;;;;;;;8.30;5.70;;;;;;;16.89;46.72;97478.69;10431525;28;20032;-30
2022/12/18 03:25:50;;;;;;;8.77;5.28;;;;;;;16.86;46.77;97481.13;10438804;28;20049;-29
2022/12/18 03:30:56;;;;;;;8.38;5.13;;;;;;;16.89;47.44;97474.47;10432592;28;20038;-29
2022/12/18 03:35:57;;;;;;;11.57;5.47;;;;;;;16.91;47.61;97482.91;10445107;28;20457;-29
2022/12/18 03:41:27;;;;;;;7.50;5.18;;;;;;;16.93;47.21;97486.34;10438749;28;20029;-29
2022/12/18 03:47:11;;;;;;;8.63;5.53;;;;;;;16.92;47.03;97476.19;10428051;28;20122;-29
2022/12/18 03:52:31;;;;;;;10.15;5.05;;;;;;;16.95;46.35;97478.78;10436072;28;20071;-29
2022/12/18 03:57:32;;;;;;;6.47;4.80;;;;;;;16.96;45.99;97490.59;10435397;28;20131;-29
2022/12/18 04:02:37;;;;;;;6.75;5.03;;;;;;;16.95;46.59;97488.88;10448717;28;20033;-29
2022/12/18 04:07:39;;;;;;;11.20;5.65;;;;;;;16.94;46.81;97492.25;10447330;28;20057;-28
2022/12/18 04:12:42;;;;;;;7.20;4.63;;;;;;;16.87;46.15;97495.47;10440106;28;20026;-29
2022/12/18 04:17:48;;;;;;;7.40;4.47;;;;;;;16.91;46.26;97493.03;10433502;28;20565;-29
2022/12/18 04:22:51;;;;;;;9.07;5.10;;;;;;;16.88;46.40;97487.06;10446926;28;20296;-30
2022/12/18 04:27:53;;;;;;;7.85;5.43;;;;;;;16.83;46.11;97488.69;10442903;28;20033;-29
2022/12/18 04:32:54;;;;;;;9.40;4.97;;;;;;;16.80;46.17;97479.34;10440102;28;20390;-29
2022/12/18 04:37:56;;;;;;;7.13;4.93;;;;;;;16.80;46.60;97473.44;10446454;28;20500;-29
2022/12/18 04:42:56;;;;;;;8.63;4.73;;;;;;;16.85;46.34;97466.78;10437603;28;20045;-29
2022/12/18 04:47:58;;;;;;;7.73;4.70;;;;;;;16.85;47.02;97464.25;10444141;28;20094;-29
2022/12/18 04:52:59;;;;;;;6.03;4.40;;;;;;;16.90;46.27;97467.75;10442343;28;20029;-33
2022/12/18 04:57:59;;;;;;;8.30;4.93;;;;;;;16.91;46.58;97471.97;10440206;28;20029;-31
2022/12/18 05:03:02;;;;;;;6.47;4.70;;;;;;;16.96;45.79;97481.34;10442781;28;20319;-29
2022/12/18 05:08:02;;;;;;;6.95;5.00;;;;;;;16.98;46.21;97484.75;10443647;28;20043;-29
2022/12/18 05:13:02;;;;;;;6.00;4.40;;;;;;;16.97;45.92;97483.03;10434755;28;20399;-29
2022/12/18 05:18:04;;;;;;;7.63;4.97;;;;;;;16.92;46.11;97476.19;10433583;28;20032;-28
2022/12/18 05:23:04;;;;;;;7.47;4.60;;;;;;;16.93;45.62;97485.50;10446950;28;20087;-29
2022/12/18 05:28:04;;;;;;;8.30;4.57;;;;;;;16.90;45.97;97480.38;10442167;28;20588;-29
2022/12/18 05:33:05;;;;;;;6.45;5.00;;;;;;;16.85;46.10;97471.84;10438654;28;20476;-29
2022/12/18 05:38:05;;;;;;;8.20;4.80;;;;;;;16.83;45.86;97476.03;10445830;28;20037;-28
2022/12/18 05:43:05;;;;;;;5.17;4.13;;;;;;;16.83;45.53;97468.44;10436954;28;20657;-29
2022/12/18 05:48:07;;;;;;;8.87;5.00;;;;;;;16.85;46.18;97472.72;10448431;28;20110;-29
2022/12/18 05:53:08;;;;;;;7.35;4.65;;;;;;;16.85;45.47;97464.25;10439779;28;20029;-29
2022/12/18 05:58:11;;;;;;;6.97;4.68;;;;;;;16.88;45.77;97466.84;10438489;28;20047;-28
2022/12/18 06:03:12;;;;;;;5.95;4.68;;;;;;;16.88;46.33;97471.91;10440124;28;20037;-28
2022/12/18 06:08:13;;;;;;;6.05;4.47;;;;;;;16.86;46.43;97474.41;10442186;28;20405;-29
2022/12/18 06:13:13;;;;;;;6.47;5.20;;;;;;;16.85;46.26;97481.97;10439185;28;20025;-29
2022/12/18 06:18:13;;;;;;;6.80;4.63;;;;;;;16.89;45.79;97493.84;10438018;28;20663;-29
2022/12/18 06:23:14;;;;;;;6.63;4.40;;;;;;;16.92;46.01;97502.31;10446964;28;20037;-29
2022/12/18 06:28:14;;;;;;;5.07;4.37;;;;;;;16.95;45.45;97509.13;10444526;28;20371;-29
2022/12/18 06:33:15;;;;;;;6.53;5.67;;;;;;;16.97;45.91;97520.13;10434105;28;20021;-29
2022/12/18 06:38:16;;;;;;;5.88;4.55;;;;;;;17.00;45.20;97523.56;10442643;28;20045;-29
2022/12/18 06:43:16;;;;;;;5.40;4.07;;;;;;;17.01;45.76;97527.81;10439493;28;20037;-29
2022/12/18 06:48:17;;;;;;;7.40;4.68;;;;;;;16.97;45.81;97538.69;10440691;28;20040;-29
2022/12/18 06:53:17;;;;;;;5.63;4.40;;;;;;;16.99;45.99;97536.19;10435554;28;20033;-29
2022/12/18 06:58:18;;;;;;;5.97;4.60;;;;;;;16.99;45.94;97533.66;10435386;28;20442;-29
2022/12/18 07:03:18;;;;;;;7.03;4.57;;;;;;;16.99;46.08;97541.25;10438097;28;20047;-29
2022/12/18 07:08:19;;;;;;;5.67;4.20;;;;;;;16.99;45.80;97547.16;10435456;28;20060;-31
2022/12/18 07:13:19;;;;;;;5.40;4.22;;;;;;;16.99;46.57;97543.78;10437539;28;20601;-29
2022/12/18 07:18:19;;;;;;;8.32;5.15;;;;;;;17.03;45.90;97540.47;10435102;28;20540;-30
2022/12/18 07:23:20;;;;;;;5.57;4.43;;;;;;;16.98;46.23;97529.44;10443532;28;20496;-29
2022/12/18 07:28:20;;;;;;;8.87;4.53;;;;;;;17.06;46.01;97543.09;10441588;28;20040;-29
2022/12/18 07:33:20;;;;;;;6.97;4.90;;;;;;;17.05;46.18;97552.34;10446539;28;20028;-29
2022/12/18 07:38:21;;;;;;;8.63;4.87;;;;;;;17.03;46.26;97560.72;10449619;28;20048;-29
2022/12/18 07:43:22;;;;;;;7.22;4.47;;;;;;;17.02;46.83;97566.59;10453194;28;20090;-29
2022/12/18 07:48:22;;;;;;;6.93;4.73;;;;;;;16.94;45.98;97588.38;10449529;28;20045;-29
2022/12/18 07:53:22;;;;;;;8.23;5.33;;;;;;;16.93;43.08;97601.84;10452397;28;20041;-29
2022/12/18 07:58:23;;;;;;;9.40;5.07;;;;;;;16.84;43.16;97614.31;10453273;28;20400;-29
2022/12/18 08:03:23;;;;;;;5.60;4.70;;;;;;;16.79;41.60;97624.31;10441744;28;20025;-28
2022/12/18 08:08:24;;;;;;;6.40;5.20;;;;;;;16.77;39.26;97625.09;10439748;28;20029;-29
2022/12/18 08:13:25;;;;;;;6.63;5.63;;;;;;;16.84;39.58;97626.94;10444566;28;20021;-32
2022/12/18 08:18:26;;;;;;;6.50;5.32;;;;;;;16.86;41.34;97631.22;10451710;28;20106;-29
2022/12/18 08:23:26;;;;;;;6.45;5.65;;;;;;;16.90;40.53;97627.09;10449467;28;20155;-28
2022/12/18 08:28:27;;;;;;;6.78;5.05;;;;;;;16.89;40.90;97618.63;10457301;28;20725;-29
2022/12/18 08:33:27;;;;;;;8.13;5.83;;;;;;;16.96;40.69;97617.06;10452878;28;20029;-30
2022/12/18 08:38:29;;;;;;;9.45;6.82;;;;;;;16.93;40.67;97601.84;10439229;28;20315;-29
2022/12/18 08:48:50;;;;;;;9.05;6.97;;;;;;;16.94;40.73;97568.13;10445355;28;20147;-29
2022/12/18 08:53:51;;;;;;;12.30;9.88;;;;;;;16.80;39.51;97554.34;10438621;28;20043;-29
2022/12/18 08:58:53;;;;;;;13.77;8.20;;;;;;;16.90;40.28;97552.03;10439118;28;20028;-29
2022/12/18 09:03:54;;;;;;;11.60;8.77;;;;;;;16.92;39.85;97547.03;10439943;28;20033;-28
2022/12/18 09:08:54;;;;;;;11.00;8.37;;;;;;;16.90;41.35;97551.22;10428706;28;20409;-29
2022/12/18 09:13:55;;;;;;;12.03;8.40;;;;;;;16.78;39.77;97556.00;10434793;28;20504;-28
2022/12/18 09:18:59;;;;;;;10.23;7.38;;;;;;;16.82;38.63;97556.09;10434195;28;20033;-29
2022/12/18 09:23:59;;;;;;;9.18;7.80;;;;;;;16.78;37.61;97561.06;10443637;28;20029;-30
2022/12/18 09:29:00;;;;;;;10.00;7.68;;;;;;;16.78;37.33;97571.19;10440835;28;20032;-30
2022/12/18 09:34:00;;;;;;;12.50;7.77;;;;;;;16.80;38.50;97574.59;10438189;28;20029;-30
2022/12/18 09:39:00;;;;;;;13.53;8.67;;;;;;;16.58;39.05;97558.94;10438877;28;20291;-29
2022/12/18 09:44:23;;;;;;;14.50;8.47;;;;;;;16.68;40.23;97584.47;10440806;28;20767;-29
2022/12/18 09:49:28;;;;;;;10.93;8.15;;;;;;;16.71;39.40;97589.56;10443443;28;20340;-29
2022/12/18 09:54:38;;;;;;;12.00;8.05;;;;;;;16.69;40.06;97595.44;10446568;28;20033;-28
2022/12/18 09:59:39;;;;;;;9.30;7.30;;;;;;;16.11;37.67;97612.63;10434535;28;20033;-29
2022/12/18 10:04:40;;;;;;;8.45;6.50;;;;;;;16.32;37.79;97613.97;10441418;28;20025;-29
2022/12/18 10:09:57;;;;;;;12.13;6.85;;;;;;;16.55;37.90;97602.72;10444107;28;20029;-29
2022/12/18 10:15:11;;;;;;;12.68;7.07;;;;;;;15.91;36.64;97598.66;10434003;28;20036;-29
2022/12/18 10:20:37;;;;;;;9.07;7.28;;;;;;;16.36;38.37;97600.56;10440091;28;20064;-29
2022/12/18 10:26:02;;;;;;;10.77;7.25;;;;;;;16.57;37.06;97601.09;10427850;28;20463;-29
2022/12/18 10:31:05;;;;;;;8.25;6.82;;;;;;;16.54;35.08;97585.84;10437735;28;20037;-31
2022/12/18 10:36:06;;;;;;;10.10;6.60;;;;;;;16.58;35.67;97575.00;10442451;28;20029;-29
2022/12/18 10:41:18;;;;;;;10.68;6.95;;;;;;;16.67;37.59;97562.53;10433002;28;20052;-29
2022/12/18 10:46:20;;;;;;;13.30;6.85;;;;;;;16.73;37.96;97563.50;10439982;28;20141;-29
2022/12/18 10:51:26;;;;;;;12.35;7.55;;;;;;;16.82;37.77;97558.63;10436359;28;20032;-30
2022/12/18 10:56:30;;;;;;;9.97;6.40;;;;;;;16.78;38.34;97548.41;10439444;28;20402;-29
2022/12/18 11:02:12;;;;;;;11.43;6.32;;;;;;;16.81;38.23;97538.38;10437657;28;20490;-29
2022/12/18 11:07:12;;;;;;;8.57;5.22;;;;;;;16.75;38.96;97530.66;10436776;28;20032;-29
2022/12/18 11:12:22;;;;;;;8.33;5.60;;;;;;;16.67;38.69;97514.50;10432473;28;20033;-30
2022/12/18 11:17:22;;;;;;;12.07;5.10;;;;;;;16.67;37.36;97511.97;10433202;28;20912;-29
2022/12/18 11:22:27;;;;;;;6.93;4.60;;;;;;;16.69;38.47;97520.44;10432424;28;20041;-28
2022/12/18 11:27:28;;;;;;;7.03;4.93;;;;;;;16.78;39.02;97511.34;10436937;28;20044;-28
2022/12/18 11:32:47;;;;;;;6.25;4.70;;;;;;;16.80;39.64;97524.00;10435081;28;20052;-29
2022/12/18 11:37:59;;;;;;;6.18;4.22;;;;;;;16.75;39.46;97511.28;10440763;28;20401;-29
2022/12/18 11:43:12;;;;;;;8.20;4.75;;;;;;;16.87;38.64;97520.78;10434879;28;20108;-29
2022/12/18 11:48:18;;;;;;;7.45;4.75;;;;;;;16.82;40.53;97528.28;10444024;28;20017;-28
2022/12/18 11:53:20;;;;;;;8.30;4.40;;;;;;;16.86;39.96;97535.13;10438630;28;20031;-29
2022/12/18 11:58:36;;;;;;;6.93;4.75;;;;;;;16.87;39.57;97521.63;10441676;28;20040;-29
2022/12/18 12:03:49;;;;;;;6.03;4.65;;;;;;;16.91;39.60;97515.81;10434039;28;20548;-29
2022/12/18 12:09:01;;;;;;;7.32;4.40;;;;;;;16.88;39.41;97493.00;10437215;28;20048;-29
2022/12/18 12:14:34;;;;;;;5.55;4.78;;;;;;;16.97;39.62;97507.47;10447277;28;20052;-30
2022/12/18 12:19:57;;;;;;;7.25;4.88;;;;;;;16.94;40.00;97502.38;10446300;28;20128;-30
2022/12/18 12:25:27;;;;;;;6.15;4.60;;;;;;;16.94;39.75;97497.31;10439726;28;20025;-29
2022/12/18 12:30:44;;;;;;;6.70;4.78;;;;;;;16.84;40.82;97495.44;10440421;28;20025;-29
2022/12/18 12:36:22;;;;;;;7.55;4.93;;;;;;;16.76;39.81;97486.84;10445899;28;20029;-29
2022/12/18 12:46:48;;;;;;;6.32;4.53;;;;;;;16.81;40.13;97513.94;10433283;28;20033;-30
2022/12/18 12:52:05;;;;;;;6.30;4.97;;;;;;;16.82;39.48;97507.22;10450803;28;20021;-30
2022/12/18 12:57:15;;;;;;;6.70;4.80;;;;;;;16.80;39.94;97503.78;10447137;28;20056;-30
2022/12/18 13:02:42;;;;;;;9.32;5.95;;;;;;;16.81;40.50;97495.41;10444107;28;20028;-29
2022/12/18 13:07:55;;;;;;;6.47;5.22;;;;;;;16.71;40.13;97483.38;10437589;28;20029;-30
2022/12/18 13:12:57;;;;;;;6.70;5.40;;;;;;;16.77;39.71;97491.94;10437293;28;20067;-30
2022/12/18 13:18:13;;;;;;;5.78;4.85;;;;;;;16.81;39.59;97490.34;10436288;28;20123;-30
2022/12/18 13:23:22;;;;;;;7.20;4.90;;;;;;;16.87;39.19;97486.22;10448873;28;20135;-30
2022/12/18 13:28:48;;;;;;;8.02;6.00;;;;;;;16.91;40.03;97477.03;10436505;28;20032;-30
2022/12/18 13:33:48;;;;;;;12.60;6.35;;;;;;;16.89;40.59;97466.03;10439937;28;20048;-30
2022/12/18 13:39:24;;;;;;;7.03;5.30;;;;;;;16.90;40.40;97457.63;10440567;28;20052;-31
2022/12/18 13:44:40;;;;;;;7.40;5.40;;;;;;;16.89;40.20;97463.50;10445171;28;20090;-30
2022/12/18 13:49:43;;;;;;;9.63;6.13;;;;;;;16.89;41.05;97463.50;10429452;28;20074;-30
2022/12/18 13:54:47;;;;;;;6.25;5.55;;;;;;;16.83;40.94;97453.28;10440337;28;20547;-29
2022/12/18 13:59:48;;;;;;;7.65;5.70;;;;;;;16.74;40.58;97453.09;10436909;28;20556;-29
2022/12/18 14:04:50;;;;;;;7.27;5.50;;;;;;;16.82;40.31;97461.69;10437958;28;20048;-30
2022/12/18 14:09:53;;;;;;;8.45;6.13;;;;;;;16.85;40.12;97454.16;10438044;28;20460;-29
2022/12/18 14:14:54;;;;;;;7.47;6.00;;;;;;;16.85;40.27;97462.59;10444116;28;20028;-30
2022/12/18 14:19:55;;;;;;;8.47;6.77;;;;;;;16.86;40.54;97463.44;10437570;28;20074;-31
2022/12/18 14:25:17;;;;;;;9.25;5.80;;;;;;;16.82;40.54;97456.63;10441657;28;20124;-30
2022/12/18 14:30:24;;;;;;;10.60;6.97;;;;;;;16.83;40.61;97470.97;10432863;28;20029;-29
2022/12/18 14:35:24;;;;;;;8.63;6.72;;;;;;;16.89;39.67;97458.44;10438097;28;20059;-30
2022/12/18 14:40:25;;;;;;;8.90;6.63;;;;;;;16.90;39.54;97455.09;10439677;28;20053;-30
2022/12/18 14:45:37;;;;;;;8.40;7.47;;;;;;;16.97;39.06;97456.88;10431696;28;20053;-30
2022/12/18 14:50:38;;;;;;;11.48;7.38;;;;;;;16.98;38.21;97453.56;10443396;28;20044;-30
2022/12/18 14:55:46;;;;;;;17.58;13.07;;;;;;;16.08;36.61;97461.84;10433664;28;20022;-30
2022/12/18 15:00:47;;;;;;;17.30;12.60;;;;;;;16.44;37.79;97462.63;10429180;28;20034;-30
2022/12/18 15:05:48;;;;;;;15.57;12.30;;;;;;;16.62;37.60;97480.66;10445114;28;20037;-30
2022/12/18 15:10:48;;;;;;;15.73;11.50;;;;;;;16.70;37.94;97476.63;10434763;28;20444;-29
2022/12/18 15:15:49;;;;;;;16.55;11.48;;;;;;;16.72;38.53;97495.22;10429434;28;20115;-30
2022/12/18 15:20:53;;;;;;;12.15;10.38;;;;;;;16.75;38.64;97490.22;10448002;28;20044;-31
2022/12/18 15:26:01;;;;;;;14.60;11.30;;;;;;;16.46;37.74;97501.41;10441274;28;20100;-29
2022/12/18 15:31:13;;;;;;;;;;;;;;;16.68;37.65;97513.66;10441052;28;20108;-30
2022/12/18 15:36:15;;;;;;;12.65;10.30;;;;;;;16.67;39.08;97515.31;10433784;28;19920;-30
2022/12/18 15:41:21;;;;;;;15.57;11.98;;;;;;;16.05;37.74;97522.44;10437404;28;20041;-30
2022/12/18 15:46:24;;;;;;;15.70;9.90;;;;;;;16.15;41.13;97529.38;10432170;28;20040;-30
2022/12/18 15:51:28;;;;;;;13.77;10.70;;;;;;;16.28;41.28;97526.28;10447533;28;20036;-30
2022/12/18 16:01:50;;;;;;;14.32;10.13;;;;;;;16.23;41.57;97521.94;10434258;28;20098;-29
2022/12/18 16:06:51;;;;;;;14.30;10.48;;;;;;;16.25;39.69;97531.28;10428434;28;20121;-30
2022/12/18 16:11:51;;;;;;;14.00;10.40;;;;;;;16.26;41.02;97532.97;10442957;28;20052;-30
2022/12/18 16:17:00;;;;;;;14.07;9.00;;;;;;;16.24;41.39;97529.56;10436541;28;20120;-30
2022/12/18 16:22:00;;;;;;;13.38;8.95;;;;;;;16.26;42.47;97517.81;10435717;28;21047;-30
2022/12/18 16:27:00;;;;;;;15.30;10.07;;;;;;;16.14;42.74;97527.66;10429649;28;20036;-30
2022/12/18 16:32:01;;;;;;;14.07;10.27;;;;;;;16.23;42.43;97509.31;10445218;28;20043;-30
2022/12/18 16:37:04;;;;;;;16.90;10.57;;;;;;;16.21;42.23;97499.16;10440188;28;20041;-30
2022/12/18 16:42:12;;;;;;;16.17;11.77;;;;;;;15.91;38.47;97503.56;10443202;28;20029;-30
2022/12/18 16:47:13;;;;;;;18.52;13.13;;;;;;;15.78;38.13;97496.53;10442983;28;20045;-30
2022/12/18 16:52:14;;;;;;;19.33;13.18;;;;;;;16.05;39.94;97487.06;10442044;28;20086;-30
2022/12/18 16:57:16;;;;;;;16.13;12.05;;;;;;;16.19;41.07;97480.59;10421648;28;20044;-30
2022/12/18 17:02:23;;;;;;;20.92;13.40;;;;;;;16.23;42.12;97484.91;10428286;28;20040;-28
2022/12/18 17:07:24;;;;;;;17.10;12.20;;;;;;;16.21;41.48;97489.06;10443691;28;20122;-28
2022/12/18 17:12:26;;;;;;;14.23;10.77;;;;;;;16.18;41.89;97489.00;10441289;28;20090;-27
2022/12/18 17:17:26;;;;;;;16.60;12.18;;;;;;;16.12;42.49;97493.94;10435258;28;20033;-28
2022/12/18 17:22:27;;;;;;;17.90;12.03;;;;;;;16.14;42.52;97487.25;10435268;28;20029;-27
2022/12/18 17:27:27;;;;;;;15.70;11.50;;;;;;;16.13;41.70;97475.41;10438693;28;20691;-27
2022/12/18 17:32:27;;;;;;;18.10;11.53;;;;;;;16.11;41.79;97466.97;10413986;28;20643;-27
2022/12/18 17:37:28;;;;;;;15.30;10.97;;;;;;;16.11;41.98;97469.50;10442636;28;20028;-27
2022/12/18 17:42:28;;;;;;;15.23;11.07;;;;;;;16.11;42.17;97464.44;10439479;28;20033;-27
2022/12/18 17:47:28;;;;;;;14.43;11.17;;;;;;;15.91;42.92;97432.00;10433730;28;20116;-27
2022/12/18 17:52:29;;;;;;;16.25;10.55;;;;;;;16.06;42.66;97453.41;10443177;28;20762;-29
2022/12/18 17:57:29;;;;;;;15.88;11.02;;;;;;;16.05;43.22;97446.66;10444222;28;20029;-29
2022/12/18 18:02:30;;;;;;;14.63;10.83;;;;;;;16.19;42.57;97450.28;10431878;28;20045;-27
2022/12/18 18:07:30;;;;;;;15.77;10.88;;;;;;;16.16;43.18;97445.19;10427689;28;20037;-29
2022/12/18 18:17:50;;;;;;;16.45;10.10;;;;;;;16.16;42.30;97445.19;10425460;28;20291;-27
2022/12/18 18:22:51;;;;;;;15.90;10.60;;;;;;;16.15;42.98;97448.53;10445807;28;20094;-28
2022/12/18 18:27:51;;;;;;;12.00;10.33;;;;;;;16.11;43.11;97451.81;10410875;28;20838;-27
2022/12/18 18:32:51;;;;;;;17.17;10.37;;;;;;;16.14;43.27;97451.88;10381699;28;20168;-27
2022/12/18 18:37:52;;;;;;;17.27;11.10;;;;;;;16.10;43.34;97450.09;10437244;28;20291;-28
2022/12/18 18:42:52;;;;;;;13.00;10.53;;;;;;;16.15;42.83;97462.81;10434776;28;20302;-28
2022/12/18 18:47:53;;;;;;;13.97;9.80;;;;;;;16.19;43.10;97469.66;10437010;28;20049;-28
2022/12/18 18:52:53;;;;;;;12.13;9.90;;;;;;;16.24;42.69;97473.13;10437304;28;20029;-27
2022/12/18 18:57:53;;;;;;;13.17;10.07;;;;;;;16.22;43.06;97479.81;10435652;28;20032;-29
2022/12/18 19:02:54;;;;;;;13.33;10.40;;;;;;;16.18;42.66;97478.91;10436881;28;20037;-29
2022/12/18 19:07:54;;;;;;;16.27;10.73;;;;;;;16.12;42.41;97473.72;10431554;28;20299;-29
2022/12/18 19:18:14;;;;;;;12.50;9.35;;;;;;;16.00;43.15;97438.13;10422822;28;20620;-29
2022/12/18 19:23:15;;;;;;;14.38;10.95;;;;;;;16.07;43.61;97452.59;10438027;28;20159;-28
2022/12/18 19:28:15;;;;;;;11.80;10.10;;;;;;;16.06;43.44;97438.25;10425196;28;20039;-34
2022/12/18 19:33:16;;;;;;;11.90;9.63;;;;;;;16.03;43.48;97434.81;10427223;28;20033;-29
2022/12/18 19:38:16;;;;;;;13.43;9.33;;;;;;;16.02;43.29;97426.34;10432883;28;20035;-29
2022/12/18 19:43:17;;;;;;;13.68;10.57;;;;;;;15.99;43.17;97411.16;10426402;28;20976;-28
2022/12/18 19:48:18;;;;;;;11.63;10.43;;;;;;;16.00;43.86;97410.34;10436401;28;20157;-28
2022/12/18 19:53:18;;;;;;;13.73;10.37;;;;;;;15.98;43.64;97404.41;10426841;28;20066;-29
2022/12/18 19:58:18;;;;;;;14.80;9.33;;;;;;;15.88;44.44;97417.63;10426831;28;20279;-28
2022/12/18 20:03:19;;;;;;;12.80;10.30;;;;;;;15.93;44.16;97418.59;10427556;28;20287;-28
2022/12/18 20:08:19;;;;;;;12.75;9.90;;;;;;;15.93;43.71;97400.91;10434557;28;20307;-29
2022/12/18 20:13:20;;;;;;;13.15;9.50;;;;;;;15.91;44.33;97400.03;10436969;28;20021;-29
2022/12/18 20:18:20;;;;;;;12.03;9.90;;;;;;;15.88;44.25;97401.66;10436800;28;20060;-28
2022/12/18 20:23:21;;;;;;;12.98;9.63;;;;;;;15.82;43.93;97401.50;10431463;28;20692;-29
2022/12/18 20:28:23;;;;;;;13.93;9.90;;;;;;;15.86;43.68;97405.81;10426188;28;20041;-29
2022/12/18 20:33:23;;;;;;;14.75;9.30;;;;;;;15.80;44.34;97400.63;10420144;28;20562;-28
2022/12/18 20:38:24;;;;;;;11.70;9.67;;;;;;;15.78;44.68;97410.69;10418307;28;20048;-28
2022/12/18 20:43:24;;;;;;;12.17;9.27;;;;;;;15.83;43.98;97409.13;10434358;28;20032;-29
2022/12/18 20:48:24;;;;;;;13.00;9.50;;;;;;;15.84;43.66;97415.00;10445419;28;20844;-28
2022/12/18 20:53:25;;;;;;;12.97;10.57;;;;;;;15.92;43.21;97421.06;10437891;28;20287;-28
2022/12/18 20:58:25;;;;;;;13.48;10.13;;;;;;;15.99;42.35;97436.41;10436083;28;20283;-29
2022/12/18 21:03:26;;;;;;;13.10;9.90;;;;;;;16.00;43.29;97437.25;10439108;28;20033;-28
2022/12/18 21:08:26;;;;;;;12.17;9.60;;;;;;;16.04;42.82;97433.97;10440210;28;20123;-28
2022/12/18 21:13:26;;;;;;;15.20;9.40;;;;;;;16.05;42.56;97446.66;10435288;28;20029;-28
2022/12/18 21:18:27;;;;;;;10.70;9.43;;;;;;;16.02;42.87;97469.28;10430562;28;20687;-28
2022/12/18 21:23:27;;;;;;;10.20;9.07;;;;;;;16.02;43.67;97455.84;10440438;28;20288;-29
2022/12/18 21:28:28;;;;;;;12.97;9.80;;;;;;;16.07;42.27;97455.09;10441533;28;20037;-29
2022/12/18 21:33:28;;;;;;;10.40;8.13;;;;;;;16.08;43.60;97451.75;10433415;28;20022;-28
2022/12/18 21:38:28;;;;;;;11.33;8.97;;;;;;;16.03;44.44;97430.59;10438212;28;20037;-29
2022/12/18 21:48:48;;;;;;;10.25;8.70;;;;;;;16.02;45.41;97441.50;10439221;28;20033;-28
2022/12/18 21:53:48;;;;;;;11.03;7.87;;;;;;;15.96;45.71;97421.19;10435874;28;20471;-28
2022/12/18 21:58:50;;;;;;;11.50;8.07;;;;;;;15.99;46.03;97425.44;10440322;28;20090;-28
2022/12/18 22:03:50;;;;;;;13.75;8.02;;;;;;;15.97;46.07;97443.13;10446073;28;20774;-28
2022/12/18 22:08:50;;;;;;;9.97;8.30;;;;;;;15.99;46.51;97459.13;10441207;28;20040;-29
2022/12/18 22:13:51;;;;;;;9.27;7.70;;;;;;;16.05;46.05;97443.25;10443246;28;20307;-28
2022/12/18 22:18:51;;;;;;;10.20;8.20;;;;;;;16.04;45.88;97449.97;10437160;28;20306;-28
2022/12/18 22:23:57;;;;;;;12.20;7.97;;;;;;;16.09;45.93;97438.31;10451715;28;20036;-28
2022/12/18 22:34:16;;;;;;;10.02;7.38;;;;;;;16.11;46.00;97438.34;10449099;28;20025;-28
2022/12/18 22:39:22;;;;;;;8.63;7.15;;;;;;;16.10;46.38;97447.56;10442098;28;20032;-28
2022/12/18 22:44:22;;;;;;;11.88;7.68;;;;;;;16.10;46.60;97449.28;10445947;28;20189;-28
2022/12/18 22:49:24;;;;;;;11.80;7.03;;;;;;;16.09;46.34;97468.59;10443841;28;20049;-28
2022/12/18 22:54:25;;;;;;;9.23;7.70;;;;;;;16.11;46.05;97464.44;10433398;28;20037;-28
2022/12/18 22:59:25;;;;;;;12.67;7.87;;;;;;;16.08;46.81;97464.38;10439171;28;20437;-29
2022/12/18 23:04:27;;;;;;;9.27;7.20;;;;;;;16.07;46.83;97451.72;10441669;28;20489;-28
2022/12/18 23:09:27;;;;;;;12.32;7.57;;;;;;;16.07;46.58;97439.94;10436158;28;20029;-28
2022/12/18 23:14:29;;;;;;;8.83;6.97;;;;;;;16.05;46.59;97443.25;10434904;28;20138;-29
2022/12/18 23:19:29;;;;;;;8.68;6.30;;;;;;;16.09;46.75;97450.06;10439692;28;20107;-29
2022/12/18 23:24:29;;;;;;;8.43;6.47;;;;;;;16.06;46.20;97443.31;10437154;28;20025;-29
2022/12/18 23:29:30;;;;;;;9.60;6.43;;;;;;;16.13;46.31;97439.22;10431344;28;20048;-28
2022/12/18 23:34:30;;;;;;;7.93;6.20;;;;;;;16.06;46.63;97428.16;10435582;28;20711;-29
2022/12/18 23:39:30;;;;;;;8.30;6.07;;;;;;;16.14;46.48;97438.41;10437716;28;20283;-29
2022/12/18 23:44:31;;;;;;;9.60;6.77;;;;;;;16.15;46.45;97433.38;10433851;28;20845;-28
2022/12/18 23:49:31;;;;;;;10.30;5.53;;;;;;;16.10;46.40;97424.00;10424055;28;20582;-30
2022/12/18 23:54:32;;;;;;;9.00;5.90;;;;;;;16.11;46.35;97436.66;10435257;28;20332;-29
2022/12/18 23:59:32;;;;;;;9.50;6.47;;;;;;;16.13;46.29;97427.44;10433454;28;20033;-29
